Time;durP1;ratioP1;P1;durP2;ratioP2;P2;SDS_P1;SDS_P2;PMS_P1;PMS_P2;Temp;Humidity;BMP_temperature;BMP_pressure;BME280_temperature;BME280_humidity;BME280_pressure;Samples;Min_cycle;Max_cycle;Signal;HPM_P1;HPM_P2
2024/03/30 00:02:11;;;;;;;13.73;2.08;;;8.30;99.90;;;;;;4985741;28;20340;-73
2024/03/30 00:04:37;;;;;;;10.77;2.80;;;8.40;99.90;;;;;;4969343;28;20042;-73
2024/03/30 00:07:03;;;;;;;11.48;2.13;;;8.40;99.90;;;;;;4969185;28;20280;-73
2024/03/30 00:09:28;;;;;;;9.15;1.88;;;8.40;99.90;;;;;;4986263;28;20035;-73
2024/03/30 00:11:54;;;;;;;9.93;1.85;;;8.40;99.90;;;;;;4969092;28;20046;-73
2024/03/30 00:14:20;;;;;;;11.48;2.10;;;8.30;99.90;;;;;;4968970;28;20307;-73
2024/03/30 00:16:45;;;;;;;8.30;1.70;;;8.30;99.90;;;;;;4953179;28;20035;-73
2024/03/30 00:19:13;;;;;;;7.18;1.40;;;8.30;99.90;;;;;;4953061;28;20035;-73
2024/03/30 00:21:38;;;;;;;7.45;2.03;;;8.20;99.90;;;;;;4969355;28;20198;-73
2024/03/30 00:24:04;;;;;;;10.02;2.03;;;8.20;99.90;;;;;;4969107;28;20031;-73
2024/03/30 00:26:29;;;;;;;9.80;2.03;;;8.20;99.90;;;;;;4968908;28;20030;-73
2024/03/30 00:28:55;;;;;;;14.00;2.15;;;8.10;99.90;;;;;;4954516;28;20022;-73
2024/03/30 00:31:25;;;;;;;7.88;1.58;;;8.10;99.90;;;;;;4972577;28;20094;-73
2024/03/30 00:33:50;;;;;;;10.57;2.17;;;8.10;99.90;;;;;;4972438;28;20042;-73
2024/03/30 00:36:16;;;;;;;11.70;2.15;;;8.00;99.90;;;;;;4972253;28;20089;-73
2024/03/30 00:38:45;;;;;;;9.18;2.03;;;8.00;99.90;;;;;;4972258;28;20054;-73
2024/03/30 00:41:11;;;;;;;12.53;1.90;;;8.00;99.90;;;;;;4956596;28;20069;-74
2024/03/30 00:43:38;;;;;;;16.23;2.10;;;8.00;99.90;;;;;;4940632;28;20200;-74
2024/03/30 00:46:04;;;;;;;8.95;1.85;;;8.00;99.90;;;;;;4956214;28;20058;-74
2024/03/30 00:48:29;;;;;;;15.15;3.03;;;8.00;99.90;;;;;;4972408;28;20046;-74
2024/03/30 00:50:55;;;;;;;12.73;3.58;;;8.00;99.90;;;;;;4937503;28;20078;-74
2024/03/30 00:53:21;;;;;;;14.98;2.90;;;8.00;99.90;;;;;;4972066;28;20031;-74
2024/03/30 00:55:58;;;;;;;14.50;2.40;;;8.00;99.90;;;;;;4972093;28;20284;-74
2024/03/30 00:58:24;;;;;;;9.38;2.08;;;8.10;99.90;;;;;;4971866;28;20310;-74
2024/03/30 01:00:49;;;;;;;15.05;2.75;;;8.10;99.90;;;;;;4988941;28;20031;-74
2024/03/30 01:03:15;;;;;;;14.18;2.20;;;8.10;99.90;;;;;;4956032;28;20023;-74
2024/03/30 01:05:42;;;;;;;11.30;2.03;;;8.20;99.90;;;;;;4956123;28;20060;-74
2024/03/30 01:08:07;;;;;;;8.82;1.92;;;8.20;99.90;;;;;;4972027;28;20288;-74
2024/03/30 01:10:33;;;;;;;9.07;1.60;;;8.30;99.90;;;;;;4955734;28;20098;-73
2024/03/30 01:12:59;;;;;;;16.00;2.50;;;8.30;99.90;;;;;;4971766;28;20027;-74
2024/03/30 01:15:25;;;;;;;11.63;2.40;;;8.30;99.90;;;;;;4988366;28;20045;-74
2024/03/30 01:17:50;;;;;;;8.98;1.73;;;8.30;99.90;;;;;;4988762;28;20054;-74
2024/03/30 01:20:19;;;;;;;9.60;1.42;;;8.40;99.90;;;;;;4936360;29;20078;-74
2024/03/30 01:22:45;;;;;;;11.60;2.00;;;8.40;99.90;;;;;;4967873;28;20046;-74
2024/03/30 01:25:12;;;;;;;11.20;2.10;;;8.40;99.90;;;;;;4939684;28;20192;-73
2024/03/30 01:27:38;;;;;;;9.27;1.58;;;8.40;99.90;;;;;;4971910;28;20073;-74
2024/03/30 01:30:05;;;;;;;9.45;2.20;;;8.40;99.90;;;;;;4988115;28;20075;-74
2024/03/30 01:32:34;;;;;;;7.68;1.63;;;8.40;99.90;;;;;;4955446;28;20180;-74
2024/03/30 01:35:00;;;;;;;7.00;1.80;;;8.40;99.90;;;;;;4971228;28;20057;-74
2024/03/30 01:37:26;;;;;;;4.72;1.45;;;8.40;99.90;;;;;;4971404;28;20034;-74
2024/03/30 01:39:51;;;;;;;7.18;1.38;;;8.40;99.90;;;;;;4970816;28;20367;-73
2024/03/30 01:42:17;;;;;;;9.25;1.70;;;8.40;99.90;;;;;;4988328;28;20026;-74
2024/03/30 01:44:43;;;;;;;7.70;1.98;;;8.40;99.90;;;;;;4971224;28;20318;-74
2024/03/30 01:47:09;;;;;;;7.60;1.83;;;8.40;99.90;;;;;;4971265;28;20027;-74
2024/03/30 01:49:35;;;;;;;8.80;2.40;;;8.40;99.90;;;;;;4955238;28;20037;-74
2024/03/30 01:52:01;;;;;;;8.23;2.47;;;8.50;99.90;;;;;;4971142;28;20038;-74
2024/03/30 01:54:27;;;;;;;7.50;2.08;;;8.50;99.90;;;;;;4955250;28;20022;-74
2024/03/30 01:56:53;;;;;;;7.93;1.80;;;8.50;99.90;;;;;;4954932;28;20037;-74
2024/03/30 01:59:18;;;;;;;4.70;1.50;;;8.50;99.90;;;;;;4971074;28;20038;-74
2024/03/30 02:01:46;;;;;;;6.05;1.75;;;8.50;99.90;;;;;;4954778;28;20027;-74
2024/03/30 02:04:14;;;;;;;10.15;2.20;;;8.50;99.90;;;;;;4939722;28;20022;-74
2024/03/30 02:06:40;;;;;;;10.88;2.28;;;8.50;99.90;;;;;;4970863;28;20027;-74
2024/03/30 02:09:05;;;;;;;7.13;1.70;;;8.60;99.90;;;;;;4987741;28;20026;-74
2024/03/30 02:11:31;;;;;;;10.60;2.40;;;8.50;99.90;;;;;;4970838;28;20355;-74
2024/03/30 02:13:57;;;;;;;7.25;1.77;;;8.50;99.90;;;;;;4970611;28;20034;-75
2024/03/30 02:16:24;;;;;;;8.63;1.95;;;8.40;99.90;;;;;;4970595;28;20065;-76
2024/03/30 02:18:50;;;;;;;6.78;2.00;;;8.40;99.90;;;;;;4970753;28;20019;-76
2024/03/30 02:21:16;;;;;;;14.55;2.65;;;8.40;99.90;;;;;;4954616;28;20022;-76
2024/03/30 02:23:42;;;;;;;6.85;1.98;;;8.30;99.90;;;;;;4954629;28;20280;-75
2024/03/30 02:26:07;;;;;;;11.77;3.25;;;8.40;99.90;;;;;;4987684;28;20086;-75
2024/03/30 02:28:33;;;;;;;13.65;3.55;;;8.40;99.90;;;;;;4970600;28;20031;-75
2024/03/30 02:30:58;;;;;;;9.27;2.10;;;8.30;99.90;;;;;;4970324;28;20030;-75
2024/03/30 02:33:24;;;;;;;9.75;2.78;;;8.30;99.90;;;;;;4954153;28;20041;-75
2024/03/30 02:35:50;;;;;;;12.10;2.38;;;8.30;99.90;;;;;;4970395;28;20069;-75
2024/03/30 02:38:16;;;;;;;12.52;2.85;;;8.30;99.90;;;;;;4986939;28;20030;-75
2024/03/30 02:40:52;;;;;;;8.43;1.90;;;8.30;99.90;;;;;;4970166;28;20208;-75
2024/03/30 02:43:18;;;;;;;5.28;1.58;;;8.30;99.90;;;;;;4987257;28;20046;-75
2024/03/30 02:45:44;;;;;;;13.40;2.47;;;8.20;99.90;;;;;;4970204;28;20272;-75
2024/03/30 02:48:09;;;;;;;6.85;1.30;;;8.20;99.90;;;;;;4970162;28;20054;-75
2024/03/30 02:50:35;;;;;;;5.18;1.30;;;8.30;99.90;;;;;;4937641;28;20289;-75
2024/03/30 02:53:00;;;;;;;4.15;1.23;;;8.20;99.90;;;;;;4969873;28;20030;-75
2024/03/30 02:55:26;;;;;;;10.65;2.03;;;8.20;99.90;;;;;;4987125;28;20069;-75
2024/03/30 02:57:52;;;;;;;5.43;1.17;;;8.20;99.90;;;;;;4969892;28;20041;-75
2024/03/30 03:00:17;;;;;;;9.25;1.90;;;8.20;99.90;;;;;;4954065;28;20097;-75
2024/03/30 03:02:43;;;;;;;5.55;1.58;;;8.10;99.90;;;;;;4969830;28;20037;-75
2024/03/30 03:05:09;;;;;;;7.43;1.80;;;8.10;99.90;;;;;;4937748;28;20027;-75
2024/03/30 03:07:35;;;;;;;7.05;2.08;;;8.00;99.90;;;;;;4953950;28;20090;-75
2024/03/30 03:10:00;;;;;;;9.50;1.90;;;8.00;99.90;;;;;;4953664;28;20038;-74
2024/03/30 03:12:26;;;;;;;9.75;2.35;;;8.00;99.90;;;;;;4969638;28;20035;-75
2024/03/30 03:14:52;;;;;;;6.75;2.15;;;7.90;99.90;;;;;;4986556;28;20026;-75
2024/03/30 03:17:18;;;;;;;12.27;1.90;;;7.90;99.90;;;;;;4969475;28;20049;-75
2024/03/30 03:19:44;;;;;;;8.02;1.50;;;7.90;99.90;;;;;;4986719;28;20085;-75
2024/03/30 03:22:09;;;;;;;11.38;2.00;;;7.80;99.90;;;;;;4969682;28;20046;-75
2024/03/30 03:24:35;;;;;;;6.53;1.73;;;7.90;99.90;;;;;;4969734;28;20026;-75
2024/03/30 03:27:01;;;;;;;10.25;1.50;;;7.90;99.90;;;;;;4969451;28;20041;-75
2024/03/30 03:29:26;;;;;;;6.88;1.35;;;7.90;99.90;;;;;;4969543;28;20027;-75
2024/03/30 03:31:52;;;;;;;6.65;1.75;;;8.00;99.90;;;;;;4986666;28;20062;-75
2024/03/30 03:34:17;;;;;;;6.03;1.30;;;8.00;99.90;;;;;;4937445;28;20034;-75
2024/03/30 03:36:43;;;;;;;7.43;2.08;;;8.00;99.90;;;;;;4969155;28;20054;-74
2024/03/30 03:39:09;;;;;;;6.40;1.35;;;7.90;99.90;;;;;;4953496;28;20035;-74
2024/03/30 03:41:34;;;;;;;9.43;1.55;;;7.90;99.90;;;;;;4986452;28;20312;-75
2024/03/30 03:44:00;;;;;;;12.68;1.80;;;7.90;99.90;;;;;;4937491;28;20027;-74
2024/03/30 03:46:25;;;;;;;8.38;1.83;;;7.90;99.90;;;;;;4953353;28;20045;-75
2024/03/30 03:48:51;;;;;;;9.38;1.45;;;7.90;99.90;;;;;;4937429;28;20054;-75
2024/03/30 03:51:17;;;;;;;11.38;1.83;;;8.00;99.90;;;;;;4969198;28;20027;-75
2024/03/30 03:53:42;;;;;;;6.55;1.70;;;8.00;99.90;;;;;;4953448;28;20078;-75
2024/03/30 03:56:08;;;;;;;8.48;1.88;;;8.00;99.90;;;;;;4986341;28;20038;-76
2024/03/30 03:58:34;;;;;;;8.52;1.92;;;7.90;99.90;;;;;;4953266;28;20038;-76
2024/03/30 04:01:04;;;;;;;9.20;1.60;;;7.80;99.90;;;;;;4969098;28;20038;-75
2024/03/30 04:03:30;;;;;;;4.30;1.73;;;7.80;99.90;;;;;;4988948;28;20057;-75
2024/03/30 04:05:55;;;;;;;3.05;1.13;;;7.60;99.90;;;;;;4973151;28;20027;-75
2024/03/30 04:08:21;;;;;;;4.13;1.10;;;7.60;99.90;;;;;;4972705;28;20035;-75
2024/03/30 04:10:46;;;;;;;3.55;1.13;;;7.50;99.90;;;;;;4972937;28;20031;-75
2024/03/30 04:13:12;;;;;;;6.40;1.85;;;7.50;99.90;;;;;;4940960;28;20248;-75
2024/03/30 04:15:40;;;;;;;7.40;1.38;;;7.50;99.90;;;;;;4940973;28;20058;-75
2024/03/30 04:18:05;;;;;;;8.27;1.75;;;7.40;99.90;;;;;;4941412;28;20101;-74
2024/03/30 04:20:31;;;;;;;6.00;1.70;;;7.50;99.90;;;;;;4956485;28;20089;-75
2024/03/30 04:22:57;;;;;;;12.88;4.15;;;7.50;99.90;;;;;;4972696;28;20027;-75
2024/03/30 04:25:22;;;;;;;9.77;3.03;;;7.50;99.90;;;;;;4956576;28;20027;-75
2024/03/30 04:27:48;;;;;;;3.50;1.77;;;7.50;99.90;;;;;;4956783;28;20027;-75
2024/03/30 04:30:17;;;;;;;4.72;1.05;;;7.40;99.90;;;;;;4956700;28;20097;-75
2024/03/30 04:32:43;;;;;;;8.38;1.35;;;7.40;99.90;;;;;;4972871;28;20049;-74
2024/03/30 04:35:08;;;;;;;6.55;1.30;;;7.50;99.90;;;;;;4972515;28;20276;-75
2024/03/30 04:37:34;;;;;;;7.05;1.50;;;7.50;99.90;;;;;;4956466;28;20069;-76
2024/03/30 04:39:59;;;;;;;7.57;1.10;;;7.40;99.90;;;;;;4972086;28;20107;-75
2024/03/30 04:42:25;;;;;;;14.43;1.33;;;7.40;99.90;;;;;;4956320;28;20043;-75
2024/03/30 04:44:51;;;;;;;4.57;0.82;;;7.40;99.90;;;;;;4956506;28;20284;-76
2024/03/30 04:47:17;;;;;;;7.45;1.08;;;7.40;99.90;;;;;;4972363;28;20226;-76
2024/03/30 04:49:42;;;;;;;5.85;1.10;;;7.40;99.90;;;;;;4956464;28;20069;-76
2024/03/30 04:52:08;;;;;;;6.30;1.00;;;7.40;99.90;;;;;;4989305;28;20285;-75
2024/03/30 04:54:33;;;;;;;5.60;1.02;;;7.40;99.90;;;;;;4972065;28;20030;-76
2024/03/30 04:56:59;;;;;;;5.63;1.10;;;7.40;99.90;;;;;;4955994;28;20090;-75
2024/03/30 04:59:25;;;;;;;4.00;1.25;;;7.40;99.90;;;;;;4989111;28;20026;-75
2024/03/30 05:01:50;;;;;;;7.78;1.00;;;7.30;99.90;;;;;;4940134;28;20054;-75
2024/03/30 05:04:16;;;;;;;3.70;1.05;;;7.30;99.90;;;;;;4972111;28;20037;-75
2024/03/30 05:06:42;;;;;;;6.22;1.00;;;7.30;99.90;;;;;;4939872;28;20093;-75
2024/03/30 05:09:07;;;;;;;5.82;1.55;;;7.30;99.90;;;;;;4971846;28;20031;-75
2024/03/30 05:11:33;;;;;;;11.75;1.42;;;7.30;99.90;;;;;;4971801;28;20030;-75
2024/03/30 05:13:59;;;;;;;7.35;1.23;;;7.40;99.90;;;;;;4939115;28;20049;-75
2024/03/30 05:16:24;;;;;;;9.82;1.42;;;7.40;99.90;;;;;;4971591;28;20031;-74
2024/03/30 05:18:50;;;;;;;6.80;1.55;;;7.40;99.90;;;;;;4939824;28;20106;-75
2024/03/30 05:21:16;;;;;;;4.80;1.00;;;7.40;99.90;;;;;;4971624;28;20077;-74
2024/03/30 05:23:41;;;;;;;10.55;1.77;;;7.40;99.90;;;;;;4988705;28;20050;-74
2024/03/30 05:26:07;;;;;;;8.13;1.40;;;7.30;99.90;;;;;;4955538;28;20054;-75
2024/03/30 05:28:36;;;;;;;7.53;1.40;;;7.30;99.90;;;;;;4971595;28;20066;-75
2024/03/30 05:31:08;;;;;;;7.90;1.45;;;7.30;99.90;;;;;;4955529;28;20031;-75
2024/03/30 05:33:34;;;;;;;7.65;1.25;;;7.30;99.90;;;;;;4971406;28;20030;-75
2024/03/30 05:35:59;;;;;;;8.20;1.80;;;7.30;99.90;;;;;;4955469;28;20069;-75
2024/03/30 05:38:25;;;;;;;10.88;1.52;;;7.30;99.90;;;;;;4955052;28;20104;-75
2024/03/30 05:40:51;;;;;;;6.85;1.38;;;7.40;99.90;;;;;;4955282;28;20113;-75
2024/03/30 05:43:17;;;;;;;9.40;2.22;;;7.40;99.90;;;;;;4970954;28;20034;-76
2024/03/30 05:45:46;;;;;;;10.25;2.90;;;7.40;99.90;;;;;;4955305;28;20026;-74
2024/03/30 05:48:12;;;;;;;6.05;1.90;;;7.50;99.90;;;;;;4939905;28;20027;-75
2024/03/30 05:50:37;;;;;;;9.65;3.00;;;7.50;99.90;;;;;;4971061;28;20038;-75
2024/03/30 05:53:03;;;;;;;9.60;1.67;;;7.60;99.90;;;;;;4939127;28;20050;-75
2024/03/30 05:55:29;;;;;;;10.07;1.83;;;7.70;99.90;;;;;;4939076;28;20037;-75
2024/03/30 05:57:54;;;;;;;8.48;1.77;;;7.70;99.90;;;;;;4970940;28;20268;-75
2024/03/30 06:00:20;;;;;;;8.82;2.13;;;7.80;99.90;;;;;;4987595;28;20023;-75
2024/03/30 06:02:46;;;;;;;14.13;4.18;;;7.70;99.90;;;;;;4954866;28;20046;-75
2024/03/30 06:05:12;;;;;;;12.02;2.78;;;7.70;99.90;;;;;;4971186;28;20181;-75
2024/03/30 06:07:38;;;;;;;8.95;3.05;;;7.70;99.90;;;;;;4970820;28;20034;-75
2024/03/30 06:10:05;;;;;;;7.18;1.83;;;7.70;99.90;;;;;;4938927;28;20035;-74
2024/03/30 06:12:30;;;;;;;9.77;2.83;;;7.70;99.90;;;;;;4954744;28;20037;-75
2024/03/30 06:14:56;;;;;;;5.45;1.40;;;7.70;99.90;;;;;;4938632;28;20196;-75
2024/03/30 06:17:22;;;;;;;5.00;1.42;;;7.70;99.90;;;;;;4970407;28;20031;-74
2024/03/30 06:19:48;;;;;;;9.48;1.42;;;7.70;99.90;;;;;;4954962;28;20031;-75
2024/03/30 06:22:13;;;;;;;7.18;2.05;;;7.70;99.90;;;;;;4954519;28;20127;-74
2024/03/30 06:24:39;;;;;;;6.63;1.52;;;7.70;99.90;;;;;;4954581;28;20022;-74
2024/03/30 06:27:06;;;;;;;5.97;1.70;;;7.70;99.90;;;;;;4969427;28;20046;-74
2024/03/30 06:29:35;;;;;;;7.60;1.60;;;7.80;99.90;;;;;;4954635;28;20267;-74
2024/03/30 06:32:01;;;;;;;6.45;1.35;;;7.80;99.90;;;;;;4969854;28;20034;-74
2024/03/30 06:34:26;;;;;;;5.45;1.42;;;7.80;99.90;;;;;;4970320;28;20129;-74
2024/03/30 06:36:52;;;;;;;6.20;2.03;;;7.80;99.90;;;;;;4954546;28;20283;-76
2024/03/30 06:39:18;;;;;;;7.35;1.30;;;7.70;99.90;;;;;;4953913;28;20026;-76
2024/03/30 06:44:28;;;;;;;6.95;1.55;;;7.80;99.90;;;;;;4972794;28;20045;-75
2024/03/30 06:46:54;;;;;;;5.22;1.30;;;7.80;99.90;;;;;;4970184;28;20030;-73
2024/03/30 06:49:20;;;;;;;5.47;1.48;;;7.80;99.90;;;;;;4969885;28;20102;-73
2024/03/30 06:51:49;;;;;;;7.22;1.40;;;7.80;99.90;;;;;;4954038;28;20030;-75
2024/03/30 06:54:15;;;;;;;6.35;2.05;;;7.90;99.90;;;;;;4955011;28;20045;-75
2024/03/30 06:56:41;;;;;;;5.82;1.10;;;8.00;99.90;;;;;;4969873;28;20042;-74
2024/03/30 06:59:06;;;;;;;4.68;1.58;;;8.10;99.90;;;;;;4970007;28;20018;-74
2024/03/30 07:01:32;;;;;;;5.43;1.17;;;8.30;99.90;;;;;;4986535;28;20069;-74
2024/03/30 07:03:59;;;;;;;5.85;1.20;;;8.50;99.90;;;;;;4986815;28;20026;-74
2024/03/30 07:06:25;;;;;;;4.93;0.88;;;8.70;99.90;;;;;;4986989;28;20027;-73
2024/03/30 07:08:51;;;;;;;6.43;1.25;;;8.90;99.90;;;;;;4986828;28;20257;-73
2024/03/30 07:11:20;;;;;;;4.75;1.20;;;9.10;99.90;;;;;;4969847;28;20026;-74
2024/03/30 07:13:46;;;;;;;10.50;1.95;;;9.20;99.90;;;;;;4954360;28;20027;-72
2024/03/30 07:16:11;;;;;;;6.88;1.50;;;9.40;99.90;;;;;;4953464;28;20033;-74
2024/03/30 07:18:37;;;;;;;4.72;1.40;;;9.50;99.90;;;;;;4969393;28;20034;-74
2024/03/30 07:21:03;;;;;;;4.78;1.38;;;9.50;99.90;;;;;;4953363;28;20038;-74
2024/03/30 07:23:29;;;;;;;8.38;2.03;;;9.70;99.90;;;;;;4986696;28;20061;-74
2024/03/30 07:25:55;;;;;;;5.25;1.13;;;9.80;99.90;;;;;;4969593;28;20035;-74
2024/03/30 07:28:21;;;;;;;5.32;1.08;;;9.90;99.90;;;;;;4969789;28;20074;-74
2024/03/30 07:30:53;;;;;;;7.40;1.35;;;9.90;99.90;;;;;;4969559;28;20031;-76
2024/03/30 07:33:19;;;;;;;8.25;1.20;;;10.00;99.90;;;;;;4986608;28;20038;-74
2024/03/30 07:35:55;;;;;;;6.93;1.27;;;10.10;99.90;;;;;;4986187;28;20098;-74
2024/03/30 07:38:24;;;;;;;8.10;1.48;;;10.00;99.90;;;;;;4940244;28;20077;-76
2024/03/30 07:40:50;;;;;;;6.72;1.88;;;10.10;99.90;;;;;;4973531;28;20124;-76
2024/03/30 07:43:16;;;;;;;3.30;1.00;;;10.40;99.90;;;;;;4990187;28;20229;-75
2024/03/30 07:45:42;;;;;;;7.45;1.70;;;10.40;99.90;;;;;;4973330;28;20027;-76
2024/03/30 07:48:07;;;;;;;13.32;3.60;;;10.60;99.90;;;;;;4956808;28;20106;-75
2024/03/30 07:50:33;;;;;;;7.05;1.60;;;10.60;99.90;;;;;;4990079;28;20088;-75
2024/03/30 07:52:59;;;;;;;11.27;2.72;;;10.80;99.90;;;;;;4972906;28;20292;-75
2024/03/30 07:55:24;;;;;;;4.10;1.40;;;10.80;99.90;;;;;;4989900;28;20213;-74
2024/03/30 07:57:50;;;;;;;12.00;1.90;;;11.10;99.90;;;;;;4956839;28;20106;-74
2024/03/30 08:00:16;;;;;;;9.60;3.05;;;11.40;99.90;;;;;;4989389;28;20035;-74
2024/03/30 08:02:42;;;;;;;5.13;1.88;;;11.80;99.90;;;;;;4972784;28;20285;-75
2024/03/30 08:05:07;;;;;;;6.65;1.65;;;11.80;99.90;;;;;;4956505;28;20224;-74
2024/03/30 08:07:33;;;;;;;11.77;3.05;;;11.70;99.90;;;;;;4972543;28;20031;-75
2024/03/30 08:09:58;;;;;;;9.40;2.20;;;11.90;99.90;;;;;;4972215;28;20102;-75
2024/03/30 08:12:24;;;;;;;8.60;1.33;;;12.20;99.90;;;;;;4956269;28;20058;-75
2024/03/30 08:14:50;;;;;;;4.85;1.40;;;12.00;99.90;;;;;;4972381;28;20034;-74
2024/03/30 08:17:16;;;;;;;5.47;1.50;;;12.20;99.90;;;;;;4940152;28;20303;-76
2024/03/30 08:19:42;;;;;;;6.07;1.42;;;12.40;99.90;;;;;;4940459;28;20026;-76
2024/03/30 08:22:07;;;;;;;5.30;1.30;;;12.40;99.90;;;;;;4956498;28;20288;-76
2024/03/30 08:24:33;;;;;;;7.07;1.58;;;12.50;99.90;;;;;;4956558;28;20027;-76
2024/03/30 08:26:59;;;;;;;4.85;1.33;;;12.60;99.90;;;;;;4956447;28;20093;-77
2024/03/30 08:29:24;;;;;;;6.80;1.60;;;12.80;99.90;;;;;;4972004;28;20057;-76
2024/03/30 08:31:50;;;;;;;1.98;1.10;;;13.20;99.90;;;;;;4956191;28;20027;-76
2024/03/30 08:34:16;;;;;;;2.97;1.23;;;13.20;99.90;;;;;;4972233;28;20081;-76
2024/03/30 08:36:41;;;;;;;5.82;1.42;;;12.80;99.90;;;;;;4956177;28;20200;-75
2024/03/30 08:39:07;;;;;;;7.05;1.52;;;13.10;99.90;;;;;;4988562;28;20027;-75
2024/03/30 08:41:33;;;;;;;6.15;1.38;;;13.30;99.90;;;;;;4955610;28;20058;-76
2024/03/30 08:44:02;;;;;;;2.78;1.15;;;13.10;99.90;;;;;;4955757;28;20058;-75
2024/03/30 08:46:29;;;;;;;6.53;1.50;;;13.50;99.90;;;;;;4972222;28;20162;-76
2024/03/30 08:49:05;;;;;;;7.55;1.55;;;13.80;99.90;;;;;;4954633;28;20035;-75
2024/03/30 08:51:30;;;;;;;9.48;2.10;;;13.50;99.90;;;;;;4940020;28;20022;-75
2024/03/30 08:54:02;;;;;;;8.35;1.90;;;13.70;99.90;;;;;;4939524;28;20037;-75
2024/03/30 08:56:35;;;;;;;6.28;1.27;;;14.30;99.90;;;;;;4939676;28;20023;-75
2024/03/30 08:59:01;;;;;;;9.20;1.52;;;14.70;99.90;;;;;;4988289;28;20241;-75
2024/03/30 09:01:28;;;;;;;4.03;1.70;;;14.60;99.90;;;;;;4955370;28;20089;-75
2024/03/30 09:03:53;;;;;;;14.20;3.03;;;13.60;99.90;;;;;;4971597;28;20086;-75
2024/03/30 09:06:19;;;;;;;8.77;2.35;;;13.80;99.90;;;;;;4988281;28;20037;-75
2024/03/30 09:08:45;;;;;;;8.23;1.90;;;12.90;99.90;;;;;;4939111;28;20185;-75
2024/03/30 09:11:11;;;;;;;5.70;1.42;;;13.10;99.90;;;;;;4955098;28;20115;-75
2024/03/30 09:13:37;;;;;;;8.45;1.52;;;12.80;99.90;;;;;;4988482;28;20054;-75
2024/03/30 09:16:03;;;;;;;10.70;1.80;;;12.00;99.90;;;;;;4939056;28;20023;-77
2024/03/30 09:18:29;;;;;;;7.03;1.83;;;11.50;99.90;;;;;;4955201;28;20106;-75
2024/03/30 09:20:55;;;;;;;7.72;1.50;;;11.40;99.90;;;;;;4971094;28;20035;-75
2024/03/30 09:23:21;;;;;;;5.57;1.55;;;12.40;99.90;;;;;;4987691;28;20019;-75
2024/03/30 09:25:47;;;;;;;4.53;1.35;;;13.70;99.90;;;;;;4971014;28;20022;-75
2024/03/30 09:28:13;;;;;;;2.40;1.33;;;14.40;99.90;;;;;;4954684;28;20278;-75
2024/03/30 09:30:38;;;;;;;4.88;1.50;;;14.50;99.90;;;;;;4955041;28;20053;-74
2024/03/30 09:33:04;;;;;;;7.07;1.38;;;14.30;99.90;;;;;;4938933;28;20027;-74
2024/03/30 09:35:30;;;;;;;10.50;1.67;;;14.10;99.90;;;;;;4938658;28;20046;-76
2024/03/30 09:38:00;;;;;;;7.00;1.88;;;14.00;99.90;;;;;;4939562;28;20026;-74
2024/03/30 09:40:25;;;;;;;5.50;1.55;;;13.10;99.90;;;;;;4955023;28;20120;-74
2024/03/30 09:42:51;;;;;;;9.20;1.60;;;12.60;99.90;;;;;;4987537;28;20121;-72
2024/03/30 09:45:17;;;;;;;16.35;7.15;;;13.80;99.90;;;;;;4970470;28;20176;-72
2024/03/30 09:47:43;;;;;;;5.80;1.60;;;14.00;99.90;;;;;;4970322;28;20075;-72
2024/03/30 09:50:09;;;;;;;21.92;11.40;;;14.80;99.90;;;;;;4970250;28;20126;-72
2024/03/30 09:52:39;;;;;;;6.45;1.50;;;13.80;99.90;;;;;;4954140;28;20093;-73
2024/03/30 09:55:09;;;;;;;7.95;2.92;;;13.80;99.90;;;;;;4970807;28;20355;-73
2024/03/30 09:57:35;;;;;;;4.93;2.45;;;14.80;99.90;;;;;;4986709;28;20367;-72
2024/03/30 10:00:01;;;;;;;6.85;1.88;;;15.70;99.90;;;;;;4953641;28;20022;-72
2024/03/30 10:02:26;;;;;;;3.63;1.30;;;15.50;99.90;;;;;;4953884;28;20313;-73
2024/03/30 10:04:53;;;;;;;8.27;1.83;;;15.10;99.90;;;;;;4953169;28;20033;-74
2024/03/30 10:07:23;;;;;;;7.13;1.35;;;15.50;99.90;;;;;;4953920;28;20026;-73
2024/03/30 10:09:49;;;;;;;11.60;3.03;;;16.10;99.90;;;;;;4954282;28;20045;-74
2024/03/30 10:12:38;;;;;;;8.82;1.80;;;17.00;99.90;;;;;;4969557;28;20296;-74
2024/03/30 10:15:08;;;;;;;5.22;2.17;;;16.70;99.90;;;;;;4953796;28;20081;-74
2024/03/30 10:17:33;;;;;;;;;;;16.50;99.90;;;;;;4954062;28;20085;-73
2024/03/30 10:20:00;;;;;;;6.18;2.70;;;16.30;99.90;;;;;;4953160;28;20164;-74
2024/03/30 10:22:25;;;;;;;6.97;2.50;;;16.70;99.90;;;;;;4937613;28;20093;-74
2024/03/30 10:24:54;;;;;;;4.82;2.50;;;16.30;99.90;;;;;;4969629;28;20038;-74
2024/03/30 10:27:20;;;;;;;22.15;11.45;;;15.20;99.90;;;;;;4953727;28;20061;-73
2024/03/30 10:29:46;;;;;;;9.88;4.47;;;14.10;99.90;;;;;;4937329;28;20027;-73
2024/03/30 10:32:12;;;;;;;8.25;2.97;;;14.00;99.90;;;;;;4953395;28;20248;-73
2024/03/30 10:34:37;;;;;;;11.35;3.40;;;13.20;99.90;;;;;;4968263;28;20035;-73
2024/03/30 10:37:03;;;;;;;12.68;7.18;;;12.60;99.90;;;;;;4985049;28;20088;-74
2024/03/30 10:39:29;;;;;;;10.48;3.00;;;13.00;99.90;;;;;;4968094;28;20299;-73
2024/03/30 10:41:55;;;;;;;9.27;2.70;;;13.80;99.90;;;;;;4936367;28;20116;-73
2024/03/30 10:44:28;;;;;;;7.95;3.25;;;14.60;99.90;;;;;;4968020;28;20146;-73
2024/03/30 10:46:54;;;;;;;17.33;7.70;;;13.80;99.90;;;;;;4968014;28;20246;-73
2024/03/30 10:49:20;;;;;;;25.52;11.88;;;14.30;99.90;;;;;;4952065;28;20184;-73
2024/03/30 10:51:46;;;;;;;10.90;5.72;;;16.00;99.90;;;;;;4967704;28;20031;-73
2024/03/30 10:54:14;;;;;;;9.57;3.75;;;15.90;99.90;;;;;;4952024;28;20090;-75
2024/03/30 10:56:49;;;;;;;8.32;2.83;;;16.60;99.90;;;;;;4968007;28;20209;-74
2024/03/30 10:59:17;;;;;;;12.63;5.82;;;16.30;99.90;;;;;;4984759;28;20086;-73
2024/03/30 11:01:43;;;;;;;8.65;2.65;;;15.70;99.90;;;;;;4968565;28;20030;-75
2024/03/30 11:04:10;;;;;;;11.20;3.97;;;16.90;99.90;;;;;;4984562;28;20095;-75
2024/03/30 11:06:36;;;;;;;13.55;6.72;;;17.60;99.90;;;;;;4951078;28;20027;-75
2024/03/30 11:09:02;;;;;;;5.45;1.60;;;18.70;99.90;;;;;;4951051;28;20027;-76
2024/03/30 11:11:27;;;;;;;6.65;2.00;;;16.30;99.90;;;;;;4947781;28;20041;-75
2024/03/30 11:13:53;;;;;;;5.32;1.88;;;15.50;99.90;;;;;;4964483;28;20276;-75
2024/03/30 11:16:19;;;;;;;8.05;2.72;;;15.20;99.90;;;;;;4967182;28;20027;-74
2024/03/30 11:18:59;;;;;;;5.78;2.75;;;15.40;99.90;;;;;;4951157;28;20049;-74
2024/03/30 11:21:29;;;;;;;8.70;4.50;;;16.50;99.90;;;;;;4951629;28;20031;-75
2024/03/30 11:23:56;;;;;;;23.33;13.25;;;15.50;99.90;;;;;;4967334;28;20065;-76
2024/03/30 11:26:23;;;;;;;10.90;5.68;;;15.90;99.90;;;;;;4966622;28;20034;-75
2024/03/30 11:28:57;;;;;;;5.10;1.50;;;16.00;99.90;;;;;;4951411;28;20110;-75
2024/03/30 11:31:51;;;;;;;17.20;10.93;;;16.50;99.90;;;;;;4983986;28;20098;-76
2024/03/30 11:34:38;;;;;;;5.28;3.60;;;16.90;99.90;;;;;;4983666;28;20027;-76
2024/03/30 11:37:16;;;;;;;6.30;2.58;;;17.60;99.90;;;;;;4952875;28;20351;-76
2024/03/30 11:39:48;;;;;;;3.38;1.75;;;17.50;99.90;;;;;;4950871;28;20030;-76
2024/03/30 11:42:38;;;;;;;9.57;4.60;;;16.60;99.90;;;;;;4965821;28;20057;-76
2024/03/30 11:45:05;;;;;;;4.30;2.05;;;17.00;99.90;;;;;;4968558;28;20046;-77
2024/03/30 11:47:31;;;;;;;6.43;2.47;;;17.90;99.90;;;;;;4966724;28;20030;-76
2024/03/30 11:49:56;;;;;;;8.43;7.70;;;18.50;99.90;;;;;;4985117;28;20066;-76
2024/03/30 11:52:22;;;;;;;5.43;1.80;;;18.40;99.90;;;;;;4985384;28;20031;-76
2024/03/30 11:54:48;;;;;;;4.10;1.60;;;17.40;99.90;;;;;;4983636;28;20184;-77
2024/03/30 11:57:14;;;;;;;5.63;1.83;;;15.60;99.90;;;;;;4966717;28;20090;-76
2024/03/30 11:59:44;;;;;;;8.40;1.42;;;15.20;99.90;;;;;;4966743;28;20031;-77
2024/03/30 12:02:14;;;;;;;5.65;2.25;;;15.00;99.90;;;;;;4966877;28;20069;-77
2024/03/30 12:04:44;;;;;;;8.40;2.53;;;16.50;99.90;;;;;;4966211;28;20153;-75
2024/03/30 12:07:10;;;;;;;3.40;1.65;;;18.30;99.90;;;;;;4966010;28;20135;-76
2024/03/30 12:09:36;;;;;;;8.77;3.63;;;18.50;99.90;;;;;;4934674;28;20192;-75
2024/03/30 12:12:25;;;;;;;6.03;2.13;;;19.30;99.90;;;;;;4950256;28;20030;-75
2024/03/30 12:14:55;;;;;;;3.63;0.90;;;17.60;99.90;;;;;;4955693;28;20031;-75
2024/03/30 12:17:24;;;;;;;7.43;2.97;;;17.80;99.90;;;;;;4965813;28;20237;-76
2024/03/30 12:19:51;;;;;;;5.47;2.23;;;17.40;99.90;;;;;;4967849;28;20079;-76
2024/03/30 12:22:21;;;;;;;6.70;1.80;;;17.60;99.90;;;;;;4965851;28;20033;-76
2024/03/30 12:24:47;;;;;;;6.13;2.38;;;17.60;99.90;;;;;;4968757;28;20031;-73
2024/03/30 12:27:13;;;;;;;4.72;2.05;;;17.40;99.90;;;;;;4937541;28;20050;-73
2024/03/30 12:29:38;;;;;;;9.70;2.30;;;16.70;99.90;;;;;;4986027;28;20030;-72
2024/03/30 12:32:05;;;;;;;5.85;2.45;;;16.40;99.90;;;;;;4968615;28;20204;-73
2024/03/30 12:34:31;;;;;;;7.80;2.92;;;17.70;99.90;;;;;;4969312;28;20050;-74
2024/03/30 12:36:57;;;;;;;4.05;1.80;;;19.20;99.90;;;;;;4969081;28;20042;-74
2024/03/30 12:39:22;;;;;;;4.80;2.60;;;18.30;99.90;;;;;;4969816;28;20294;-74
2024/03/30 12:41:48;;;;;;;4.53;2.50;;;17.60;99.90;;;;;;4953477;28;20051;-75
2024/03/30 12:44:14;;;;;;;7.10;1.33;;;18.50;99.90;;;;;;4969228;28;20145;-73
2024/03/30 12:46:39;;;;;;;5.53;1.40;;;18.50;99.90;;;;;;4986624;28;20149;-73
2024/03/30 12:49:05;;;;;;;8.40;2.30;;;18.10;99.90;;;;;;4986580;28;20046;-74
2024/03/30 12:51:35;;;;;;;3.45;1.20;;;18.20;99.90;;;;;;4952527;28;20034;-72